createdAt,value
2019-05-05T00:00:39.594Z,101508.41
2019-05-05T00:03:34.584Z,101507.54
2019-05-05T00:06:22.050Z,101509.67
2019-05-05T00:09:10.023Z,101506.20
2019-05-05T00:12:12.051Z,101509.66
2019-05-05T00:15:18.747Z,101505.33
2019-05-05T00:18:06.258Z,101507.91
2019-05-05T00:20:55.217Z,101508.33
2019-05-05T00:23:41.655Z,101511.82
2019-05-05T00:26:29.583Z,101512.71
2019-05-05T00:29:17.837Z,101512.66
2019-05-05T00:32:05.504Z,101517.47
2019-05-05T00:34:54.998Z,101521.78
2019-05-05T00:37:40.554Z,101524.38
2019-05-05T00:40:28.065Z,101527.81
2019-05-05T00:43:16.002Z,101530.84
2019-05-05T00:46:07.513Z,101541.72
2019-05-05T00:48:55.110Z,101533.42
2019-05-05T00:51:44.325Z,101539.91
2019-05-05T00:54:30.793Z,101542.09
2019-05-05T00:57:18.779Z,101546.87
2019-05-05T01:00:06.757Z,101545.53
2019-05-05T01:02:54.433Z,101543.85
2019-05-05T01:06:00.461Z,101544.68
2019-05-05T01:08:48.429Z,101541.66
2019-05-05T01:11:36.172Z,101549.91
2019-05-05T01:14:25.006Z,101545.53
2019-05-05T01:17:11.437Z,101550.34
2019-05-05T01:20:03.112Z,101541.64
2019-05-05T01:22:47.291Z,101551.22
2019-05-05T01:25:35.441Z,101546.00
2019-05-05T01:28:24.928Z,101551.20
2019-05-05T01:31:14.667Z,101552.91
2019-05-05T01:34:04.996Z,101548.55
2019-05-05T01:36:56.755Z,101548.56
2019-05-05T01:39:58.730Z,101552.48
2019-05-05T01:42:46.257Z,101555.09
2019-05-05T01:45:34.729Z,101555.09
2019-05-05T01:48:21.777Z,101557.72
2019-05-05T01:51:09.550Z,101563.38
2019-05-05T01:53:57.127Z,101565.11
2019-05-05T01:56:45.163Z,101562.52
2019-05-05T01:59:35.222Z,101564.22
2019-05-05T02:02:20.741Z,101563.83
2019-05-05T02:05:08.599Z,101568.14
2019-05-05T02:07:56.453Z,101569.39
2019-05-05T02:10:45.401Z,101566.41
2019-05-05T02:13:32.075Z,101563.78
2019-05-05T02:16:19.697Z,101564.63
2019-05-05T02:19:07.993Z,101569.39
2019-05-05T02:21:55.837Z,101575.52
2019-05-05T02:24:44.542Z,101571.59
2019-05-05T02:27:34.232Z,101565.48
2019-05-05T02:30:28.899Z,101571.14
2019-05-05T02:33:17.127Z,101576.34
2019-05-05T02:36:05.696Z,101571.14
2019-05-05T02:38:52.727Z,101575.95
2019-05-05T02:41:40.210Z,101580.30
2019-05-05T02:44:27.522Z,101582.48
2019-05-05T02:47:25.715Z,101578.11
2019-05-05T02:50:11.428Z,101578.08
2019-05-05T02:52:59.111Z,101588.50
2019-05-05T02:55:46.603Z,101587.20
2019-05-05T02:58:34.667Z,101589.78
2019-05-05T03:01:27.733Z,101591.09
2019-05-05T03:04:15.673Z,101590.22
2019-05-05T03:07:04.747Z,101593.70
2019-05-05T03:09:51.611Z,101597.21
2019-05-05T03:12:39.805Z,101597.19
2019-05-05T03:15:44.151Z,101600.27
2019-05-05T03:18:33.749Z,101603.28
2019-05-05T03:21:20.223Z,101602.85
2019-05-05T03:24:08.415Z,101606.33
2019-05-05T03:26:56.115Z,101609.84
2019-05-05T03:29:44.315Z,101614.62
2019-05-05T03:32:31.537Z,101612.47
2019-05-05T03:35:19.147Z,101618.62
2019-05-05T03:38:07.107Z,101608.69
2019-05-05T03:40:55.106Z,101610.84
2019-05-05T03:44:01.361Z,101620.47
2019-05-05T03:46:49.094Z,101615.69
2019-05-05T03:49:36.789Z,101621.41
2019-05-05T03:52:24.606Z,101624.45
2019-05-05T03:55:13.790Z,101624.03
2019-05-05T03:58:00.285Z,101624.11
2019-05-05T04:01:26.820Z,101629.33
2019-05-05T04:04:25.259Z,101635.43
2019-05-05T04:07:13.966Z,101634.58
2019-05-05T04:10:00.967Z,101641.97
2019-05-05T04:12:48.672Z,101649.80
2019-05-05T04:15:36.831Z,101644.60
2019-05-05T04:18:28.036Z,101649.42
2019-05-05T04:21:15.538Z,101652.90
2019-05-05T04:24:04.030Z,101659.02
2019-05-05T04:26:51.570Z,101655.16
2019-05-05T04:29:39.910Z,101659.06
2019-05-05T04:32:27.526Z,101667.77
2019-05-05T04:35:14.952Z,101666.00
2019-05-05T04:38:04.780Z,101675.15
2019-05-05T04:40:50.460Z,101672.10
2019-05-05T04:43:38.611Z,101678.63
2019-05-05T04:46:25.912Z,101681.27
2019-05-05T04:49:27.324Z,101680.89
2019-05-05T04:52:15.509Z,101682.62
2019-05-05T04:55:03.956Z,101687.87
2019-05-05T04:57:51.144Z,101691.82
2019-05-05T05:00:38.813Z,101691.93
2019-05-05T05:03:51.881Z,101689.78
2019-05-05T05:06:43.616Z,101686.78
2019-05-05T05:09:31.124Z,101683.81
2019-05-05T05:12:18.606Z,101690.87
2019-05-05T05:15:06.756Z,101691.43
2019-05-05T05:17:59.551Z,101697.59
2019-05-05T05:20:47.305Z,101701.16
2019-05-05T05:23:34.789Z,101699.02
2019-05-05T05:26:24.218Z,101702.09
2019-05-05T05:29:10.871Z,101713.94
2019-05-05T05:31:59.003Z,101713.95
2019-05-05T05:34:48.597Z,101717.91
2019-05-05T05:37:36.423Z,101723.62
2019-05-05T05:40:34.205Z,101722.78
2019-05-05T05:43:25.372Z,101727.17
2019-05-05T05:46:25.183Z,101735.94
2019-05-05T05:49:26.692Z,101728.50
2019-05-05T05:52:18.926Z,101729.84
2019-05-05T05:55:04.093Z,101741.64
2019-05-05T05:57:50.978Z,101742.95
2019-05-05T06:00:41.635Z,101733.33
2019-05-05T06:03:26.356Z,101743.38
2019-05-05T06:06:14.627Z,101743.36
2019-05-05T06:09:04.297Z,101744.22
2019-05-05T06:11:50.745Z,101748.58
2019-05-05T06:14:38.247Z,101756.02
2019-05-05T06:17:26.065Z,101762.09
2019-05-05T06:20:14.612Z,101766.03
2019-05-05T06:23:04.100Z,101769.48
2019-05-05T06:25:50.477Z,101768.19
2019-05-05T06:28:38.413Z,101773.47
2019-05-05T06:31:26.385Z,101772.13
2019-05-05T06:34:14.060Z,101771.66
2019-05-05T06:37:01.731Z,101777.37
2019-05-05T06:39:49.252Z,101771.23
2019-05-05T06:42:49.523Z,101779.56
2019-05-05T06:45:41.252Z,101777.78
2019-05-05T06:48:28.944Z,101782.60
2019-05-05T06:51:16.697Z,101787.88
2019-05-05T06:54:04.705Z,101779.93
2019-05-05T06:56:53.850Z,101785.58
2019-05-05T06:59:40.523Z,101788.19
2019-05-05T07:02:28.338Z,101782.47
2019-05-05T07:05:16.209Z,101791.59
2019-05-05T07:08:04.563Z,101797.66
2019-05-05T07:10:52.055Z,101801.56
2019-05-05T07:13:39.862Z,101800.17
2019-05-05T07:16:27.438Z,101809.03
2019-05-05T07:19:15.238Z,101809.84
2019-05-05T07:22:04.051Z,101810.56
2019-05-05T07:24:50.591Z,101808.72
2019-05-05T07:27:38.527Z,101809.52
2019-05-05T07:30:26.692Z,101812.45
2019-05-05T07:33:15.032Z,101816.41
2019-05-05T07:36:20.847Z,101811.50
2019-05-05T07:39:09.175Z,101813.45
2019-05-05T07:41:56.684Z,101813.37
2019-05-05T07:44:44.479Z,101810.36
2019-05-05T07:47:34.135Z,101812.28
2019-05-05T07:50:29.559Z,101805.31
2019-05-05T07:53:14.643Z,101801.12
2019-05-05T07:55:55.407Z,101805.67
2019-05-05T07:58:43.990Z,101801.62
2019-05-05T08:01:31.129Z,101802.86
2019-05-05T08:04:18.929Z,101793.08
2019-05-05T08:07:06.609Z,101800.27
2019-05-05T08:09:54.418Z,101801.16
2019-05-05T08:12:43.664Z,101800.58
2019-05-05T08:15:30.251Z,101801.13
2019-05-05T08:18:25.555Z,101791.91
2019-05-05T08:21:13.731Z,101787.78
2019-05-05T08:24:19.379Z,101782.38
2019-05-05T08:27:20.935Z,101787.55
2019-05-05T08:30:15.626Z,101789.58
2019-05-05T08:33:04.624Z,101797.03
2019-05-05T08:35:51.215Z,101795.83
2019-05-05T08:38:39.050Z,101800.67
2019-05-05T08:41:27.209Z,101801.80
2019-05-05T08:44:18.035Z,101802.34
2019-05-05T08:47:04.500Z,101800.20
2019-05-05T08:49:50.650Z,101808.14
2019-05-05T08:52:38.862Z,101808.38
2019-05-05T08:55:28.442Z,101809.39
2019-05-05T08:58:15.027Z,101811.33
2019-05-05T09:01:04.203Z,101806.72
2019-05-05T09:03:49.670Z,101806.72
2019-05-05T09:06:37.849Z,101812.30
2019-05-05T09:09:24.944Z,101820.00
2019-05-05T09:12:13.887Z,101817.67
2019-05-05T09:15:00.109Z,101819.87
2019-05-05T09:17:48.133Z,101820.98
2019-05-05T09:20:36.419Z,101816.69
2019-05-05T09:23:24.332Z,101622.12
2019-05-05T09:26:19.762Z,101798.67
2019-05-05T09:29:24.169Z,101809.63
2019-05-05T09:32:09.645Z,101806.52
2019-05-05T09:34:57.887Z,101817.37
2019-05-05T09:37:46.118Z,101818.03
2019-05-05T09:40:38.399Z,101815.25
2019-05-05T09:43:25.883Z,101811.81
2019-05-05T09:46:14.504Z,101805.22
2019-05-05T09:49:01.882Z,101799.16
2019-05-05T09:51:49.734Z,101797.56
2019-05-05T09:54:18.677Z,101802.02
2019-05-05T09:56:47.884Z,101807.19
2019-05-05T09:59:17.115Z,101808.59
2019-05-05T10:01:46.383Z,101818.19
2019-05-05T10:04:15.705Z,101819.52
2019-05-05T10:06:47.746Z,101816.61
2019-05-05T10:09:14.267Z,101821.02
2019-05-05T10:11:45.040Z,101826.83
2019-05-05T10:14:14.353Z,101815.31
2019-05-05T10:16:41.883Z,101823.74
2019-05-05T10:19:11.100Z,101823.09
2019-05-05T10:21:40.394Z,101826.79
2019-05-05T10:24:27.743Z,101820.14
2019-05-05T10:26:46.766Z,101821.16
2019-05-05T10:29:16.091Z,101824.28
2019-05-05T10:31:45.299Z,101828.44
2019-05-05T10:34:14.530Z,101823.80
2019-05-05T10:36:44.291Z,101823.00
2019-05-05T10:39:18.778Z,101826.63
2019-05-05T10:41:48.006Z,101811.80
2019-05-05T10:44:17.324Z,101815.83
2019-05-05T10:46:46.614Z,101802.67
2019-05-05T10:49:15.942Z,101811.38
2019-05-05T10:51:45.191Z,101807.61
2019-05-05T10:54:14.414Z,101810.90
2019-05-05T10:56:43.732Z,101813.55
2019-05-05T10:59:13.009Z,101822.58
2019-05-05T11:01:42.193Z,101822.41
2019-05-05T11:04:13.527Z,101819.04
2019-05-05T11:06:40.810Z,101819.97
2019-05-05T11:09:10.104Z,101820.90
2019-05-05T11:11:39.333Z,101818.20
2019-05-05T11:14:08.600Z,101820.13
2019-05-05T11:16:37.930Z,101824.66
2019-05-05T11:19:07.130Z,101820.03
2019-05-05T11:21:36.449Z,101826.81
2019-05-05T11:24:05.713Z,101830.78
2019-05-05T11:26:35.031Z,101816.47
2019-05-05T11:29:04.337Z,101816.41
2019-05-05T11:31:34.349Z,101815.09
2019-05-05T11:34:14.033Z,101805.79
2019-05-05T11:36:49.260Z,101806.17
2019-05-05T11:39:18.518Z,101803.01
2019-05-05T11:41:47.846Z,101804.92
2019-05-05T11:44:17.142Z,101803.41
2019-05-05T11:46:46.440Z,101803.61
2019-05-05T11:49:15.726Z,101797.97
2019-05-05T11:51:45.053Z,101793.23
2019-05-05T11:54:14.318Z,101798.63
2019-05-05T11:56:44.741Z,101803.28
2019-05-05T11:59:14.428Z,101810.27
2019-05-05T12:01:43.876Z,101803.81
2019-05-05T12:04:11.796Z,101804.19
2019-05-05T12:06:41.032Z,101814.89
2019-05-05T12:09:16.625Z,101807.49
2019-05-05T12:11:45.903Z,101805.82
2019-05-05T12:14:15.092Z,101808.69
2019-05-05T12:16:44.422Z,101810.91
2019-05-05T12:19:13.898Z,101810.79
2019-05-05T12:21:44.229Z,101808.45
2019-05-05T12:24:16.330Z,101816.30
2019-05-05T12:26:58.702Z,101810.66
2019-05-05T12:29:30.663Z,101803.08
2019-05-05T12:31:59.932Z,101820.92
2019-05-05T12:34:29.140Z,101815.19
2019-05-05T12:36:58.478Z,101819.00
2019-05-05T12:39:27.738Z,101819.83
2019-05-05T12:41:57.071Z,101810.53
2019-05-05T12:44:35.610Z,101812.77
2019-05-05T12:47:23.609Z,101807.57
2019-05-05T12:49:51.694Z,101799.87
2019-05-05T12:52:20.906Z,101800.32
2019-05-05T12:54:50.120Z,101797.66
2019-05-05T12:57:19.380Z,101799.41
2019-05-05T12:59:48.631Z,101814.83
2019-05-05T13:02:18.000Z,101805.36
2019-05-05T13:04:47.244Z,101807.94
2019-05-05T13:07:19.356Z,101798.88
2019-05-05T13:09:48.621Z,101800.09
2019-05-05T13:12:18.111Z,101802.14
2019-05-05T13:14:47.547Z,101802.90
2019-05-05T13:17:16.792Z,101799.78
2019-05-05T13:19:59.451Z,101804.45
2019-05-05T13:22:41.112Z,101808.91
2019-05-05T13:25:35.245Z,101801.73
2019-05-05T13:28:04.439Z,101792.82
2019-05-05T13:30:34.420Z,101797.97
2019-05-05T13:33:03.716Z,101787.92
2019-05-05T13:35:34.041Z,101804.96
2019-05-05T13:38:01.546Z,101799.23
2019-05-05T13:40:30.879Z,101804.77
2019-05-05T13:43:00.143Z,101801.98
2019-05-05T13:45:39.568Z,101806.75
2019-05-05T13:48:08.799Z,101803.49
2019-05-05T13:50:40.586Z,101811.94
2019-05-05T13:53:09.872Z,101812.25
2019-05-05T13:55:39.142Z,101810.73
2019-05-05T13:58:08.988Z,101812.30
2019-05-05T14:00:37.755Z,101799.23
2019-05-05T14:03:07.045Z,101800.44
2019-05-05T14:05:36.335Z,101807.84
2019-05-05T14:08:05.694Z,101808.28
2019-05-05T14:10:34.944Z,101808.66
2019-05-05T14:13:04.187Z,101809.59
2019-05-05T14:15:34.150Z,101814.52
2019-05-05T14:18:03.797Z,101819.76
2019-05-05T14:20:31.980Z,101815.00
2019-05-05T14:23:01.231Z,101815.05
2019-05-05T14:25:30.714Z,101819.23
2019-05-05T14:28:00.085Z,101810.34
2019-05-05T14:30:46.058Z,101827.08
2019-05-05T14:33:18.274Z,101840.14
2019-05-05T14:36:09.318Z,101838.96
2019-05-05T14:38:57.660Z,101842.20
2019-05-05T14:41:26.932Z,101842.20
2019-05-05T14:43:56.618Z,101836.70
2019-05-05T14:46:25.417Z,101845.25
2019-05-05T14:48:54.597Z,101829.62
2019-05-05T14:51:23.896Z,101839.39
2019-05-05T14:53:54.290Z,101834.48
2019-05-05T14:56:35.432Z,101824.97
2019-05-05T14:58:51.959Z,101826.91
2019-05-05T15:01:21.188Z,101831.13
2019-05-05T15:03:50.402Z,101826.53
2019-05-05T15:06:29.318Z,101820.94
2019-05-05T15:09:16.427Z,101829.62
2019-05-05T15:11:53.686Z,101825.05
2019-05-05T15:14:24.405Z,101825.72
2019-05-05T15:16:54.274Z,101818.30
2019-05-05T15:19:23.735Z,101827.47
2019-05-05T15:21:51.134Z,101823.30
2019-05-05T15:24:20.459Z,101819.36
2019-05-05T15:26:52.232Z,101812.36
2019-05-05T15:29:19.026Z,101807.50
2019-05-05T15:31:48.369Z,101806.16
2019-05-05T15:34:17.736Z,101803.93
2019-05-05T15:36:47.071Z,101802.86
2019-05-05T15:39:16.334Z,101802.81
2019-05-05T15:41:45.659Z,101796.00
2019-05-05T15:44:14.874Z,101792.34
2019-05-05T15:46:44.326Z,101792.73
2019-05-05T15:49:13.405Z,101794.52
2019-05-05T15:51:44.322Z,101792.63
2019-05-05T15:54:14.925Z,101794.92
2019-05-05T15:56:44.222Z,101803.02
2019-05-05T15:59:14.338Z,101792.83
2019-05-05T16:01:43.463Z,101797.70
2019-05-05T16:04:13.980Z,101798.19
2019-05-05T16:06:41.418Z,101797.44
2019-05-05T16:09:10.739Z,101809.81
2019-05-05T16:11:40.318Z,101805.91
2019-05-05T16:14:09.886Z,101810.48
2019-05-05T16:17:03.898Z,101808.26
2019-05-05T16:19:35.604Z,101804.94
2019-05-05T16:22:08.748Z,101811.33
2019-05-05T16:24:40.000Z,101804.42
2019-05-05T16:27:21.209Z,101803.73
2019-05-05T16:29:38.604Z,101790.70
2019-05-05T16:32:17.838Z,101808.23
2019-05-05T16:34:37.155Z,101800.19
2019-05-05T16:37:06.388Z,101808.26
2019-05-05T16:39:35.713Z,101819.31
2019-05-05T16:42:05.024Z,101804.58
2019-05-05T16:44:34.314Z,101806.77
2019-05-05T16:47:04.727Z,101802.15
2019-05-05T16:49:35.341Z,101798.52
2019-05-05T16:52:14.601Z,101791.70
2019-05-05T16:55:01.347Z,101798.77
2019-05-05T16:57:33.877Z,101802.03
2019-05-05T16:59:59.920Z,101803.42
2019-05-05T17:02:29.243Z,101803.45
2019-05-05T17:04:58.462Z,101802.18
2019-05-05T17:07:27.759Z,101807.13
2019-05-05T17:09:57.034Z,101806.44
2019-05-05T17:12:26.298Z,101813.95
2019-05-05T17:15:13.302Z,101819.71
2019-05-05T17:18:04.726Z,101815.52
2019-05-05T17:20:37.341Z,101827.78
2019-05-05T17:23:08.609Z,101821.96
2019-05-05T17:25:37.879Z,101821.06
2019-05-05T17:28:07.137Z,101820.09
2019-05-05T17:30:36.362Z,101824.77
2019-05-05T17:33:05.620Z,101824.05
2019-05-05T17:35:35.222Z,101823.67
2019-05-05T17:38:08.239Z,101824.94
2019-05-05T17:40:55.372Z,101821.16
2019-05-05T17:43:55.614Z,101840.73
2019-05-05T17:46:28.938Z,101829.50
2019-05-05T17:49:15.037Z,101838.84
2019-05-05T17:52:14.193Z,101835.30
2019-05-05T17:54:44.701Z,101841.73
2019-05-05T17:57:14.308Z,101831.11
2019-05-05T17:59:44.091Z,101838.91
2019-05-05T18:02:12.427Z,101834.69
2019-05-05T18:04:41.650Z,101834.78
2019-05-05T18:07:23.711Z,101835.95
2019-05-05T18:10:08.759Z,101835.09
2019-05-05T18:12:54.088Z,101838.62
2019-05-05T18:15:40.798Z,101833.89
2019-05-05T18:18:10.140Z,101835.11
2019-05-05T18:20:39.402Z,101840.06
2019-05-05T18:23:08.625Z,101838.28
2019-05-05T18:25:37.898Z,101845.45
2019-05-05T18:28:17.097Z,101850.89
2019-05-05T18:30:36.316Z,101851.13
2019-05-05T18:33:05.564Z,101854.95
2019-05-05T18:35:34.828Z,101860.89
2019-05-05T18:38:04.206Z,101863.27
2019-05-05T18:40:33.762Z,101864.52
2019-05-05T18:43:04.125Z,101864.52
2019-05-05T18:45:33.232Z,101867.58
2019-05-05T18:48:04.342Z,101881.88
2019-05-05T18:50:33.846Z,101864.45
2019-05-05T18:53:01.057Z,101862.34
2019-05-05T18:55:30.297Z,101872.04
2019-05-05T18:57:59.654Z,101868.19
2019-05-05T19:00:48.019Z,101872.30
2019-05-05T19:03:21.560Z,101875.84
2019-05-05T19:06:09.888Z,101878.17
2019-05-05T19:08:53.735Z,101871.80
2019-05-05T19:11:12.460Z,101871.80
2019-05-05T19:13:41.748Z,101895.11
2019-05-05T19:16:10.985Z,101879.39
2019-05-05T19:18:40.244Z,101895.69
2019-05-05T19:21:19.844Z,101889.17
2019-05-05T19:23:49.083Z,101894.53
2019-05-05T19:26:18.302Z,101895.92
2019-05-05T19:28:50.290Z,101895.92
2019-05-05T19:31:16.823Z,101910.12
2019-05-05T19:33:46.116Z,101923.32
2019-05-05T19:36:15.385Z,101903.23
2019-05-05T19:38:44.794Z,101907.22
2019-05-05T19:41:14.453Z,101906.83
2019-05-05T19:43:55.402Z,101912.14
2019-05-05T19:46:45.396Z,101917.03
2019-05-05T19:49:18.236Z,101910.86
2019-05-05T19:51:48.173Z,101916.67
2019-05-05T19:54:17.540Z,101916.67
2019-05-05T19:56:46.768Z,101914.93
2019-05-05T19:59:16.037Z,101921.09
2019-05-05T20:01:45.309Z,101929.81
2019-05-05T20:04:14.806Z,101920.66
2019-05-05T20:06:44.362Z,101920.66
2019-05-05T20:09:14.182Z,101925.06
2019-05-05T20:11:43.722Z,101911.13
2019-05-05T20:14:11.690Z,101911.13
2019-05-05T20:17:04.225Z,101921.69
2019-05-05T20:19:34.194Z,101918.20
2019-05-05T20:22:02.710Z,101928.77
2019-05-05T20:24:33.686Z,101925.74
2019-05-05T20:27:01.219Z,101922.70
2019-05-05T20:29:30.481Z,101930.68
2019-05-05T20:31:59.737Z,101921.05
2019-05-05T20:34:42.008Z,101932.95
2019-05-05T20:37:14.128Z,101931.66
2019-05-05T20:39:43.925Z,101921.62
2019-05-05T20:42:11.651Z,101929.13
2019-05-05T20:44:40.930Z,101931.31
2019-05-05T20:47:10.204Z,101932.64
2019-05-05T20:49:39.401Z,101936.17
2019-05-05T20:52:08.651Z,101934.86
2019-05-05T20:54:37.933Z,101940.13
2019-05-05T20:57:07.173Z,101941.48
2019-05-05T20:59:36.733Z,101936.61
2019-05-05T21:02:06.477Z,101948.48
2019-05-05T21:04:35.679Z,101947.59
2019-05-05T21:07:04.900Z,101949.80
2019-05-05T21:09:34.688Z,101952.91
2019-05-05T21:12:04.755Z,101951.58
2019-05-05T21:14:37.262Z,101949.81
2019-05-05T21:17:04.027Z,101952.47
2019-05-05T21:19:31.318Z,101955.99
2019-05-05T21:22:00.690Z,101952.94
2019-05-05T21:24:29.893Z,101950.31
2019-05-05T21:27:01.240Z,101944.65
2019-05-05T21:29:41.102Z,101944.63
2019-05-05T21:31:59.773Z,101947.29
2019-05-05T21:34:28.979Z,101945.52
2019-05-05T21:36:58.186Z,101946.84
2019-05-05T21:39:27.500Z,101949.92
2019-05-05T21:41:56.724Z,101946.41
2019-05-05T21:44:25.974Z,101945.55
2019-05-05T21:46:55.323Z,101958.27
2019-05-05T21:49:24.522Z,101951.70
2019-05-05T21:52:14.366Z,101953.89
2019-05-05T21:54:51.229Z,101957.39
2019-05-05T21:57:45.141Z,101961.77
2019-05-05T22:00:32.011Z,101964.39
2019-05-05T22:03:01.239Z,101958.29
2019-05-05T22:05:30.536Z,101957.83
2019-05-05T22:07:59.819Z,101956.09
2019-05-05T22:10:29.052Z,101955.64
2019-05-05T22:12:58.353Z,101954.77
2019-05-05T22:15:27.586Z,101950.39
2019-05-05T22:17:56.822Z,101954.34
2019-05-05T22:20:30.390Z,101955.65
2019-05-05T22:22:59.613Z,101948.20
2019-05-05T22:25:28.850Z,101950.39
2019-05-05T22:27:58.078Z,101946.02
2019-05-05T22:30:27.311Z,101946.02
2019-05-05T22:32:56.543Z,101946.45
2019-05-05T22:35:25.783Z,101948.66
2019-05-05T22:37:55.009Z,101954.77
2019-05-05T22:40:24.578Z,101947.33
2019-05-05T22:42:54.679Z,101953.89
2019-05-05T22:45:23.691Z,101952.58
2019-05-05T22:47:51.913Z,101954.34
2019-05-05T22:50:21.145Z,101953.91
2019-05-05T22:52:50.446Z,101953.47
2019-05-05T22:55:19.673Z,101959.59
2019-05-05T22:57:48.912Z,101962.20
2019-05-05T23:00:28.418Z,101958.73
2019-05-05T23:02:50.431Z,101965.28
2019-05-05T23:05:25.305Z,101958.27
2019-05-05T23:07:54.630Z,101962.66
2019-05-05T23:10:23.737Z,101959.13
2019-05-05T23:12:54.423Z,101955.20
2019-05-05T23:15:25.296Z,101953.42
2019-05-05T23:18:01.311Z,101956.94
2019-05-05T23:20:49.069Z,101954.73
2019-05-05T23:23:36.393Z,101947.30
2019-05-05T23:26:05.635Z,101952.53
2019-05-05T23:28:34.925Z,101949.44
2019-05-05T23:31:04.129Z,101942.42
2019-05-05T23:33:34.589Z,101945.51
2019-05-05T23:36:04.097Z,101945.04
2019-05-05T23:38:34.634Z,101942.44
2019-05-05T23:41:03.863Z,101934.55
2019-05-05T23:43:34.703Z,101928.84
2019-05-05T23:46:03.946Z,101933.64
2019-05-05T23:48:34.840Z,101943.26
2019-05-05T23:51:04.412Z,101936.69
2019-05-05T23:53:31.739Z,101942.34
2019-05-05T23:56:01.058Z,101940.16
2019-05-05T23:58:30.328Z,101944.97
